createdAt,value
2023-04-21T00:01:53.281Z,97494.75
2023-04-21T00:04:20.051Z,97484.84
2023-04-21T00:06:46.628Z,97484.13
2023-04-21T00:09:13.104Z,97486.41
2023-04-21T00:11:39.552Z,97479.63
2023-04-21T00:14:06.072Z,97480.06
2023-04-21T00:16:32.700Z,97478.94
2023-04-21T00:18:59.451Z,97482.31
2023-04-21T00:21:26.887Z,97475.81
2023-04-21T00:23:53.454Z,97474.72
2023-04-21T00:26:20.961Z,97477.66
2023-04-21T00:28:49.344Z,97468.22
2023-04-21T00:31:15.955Z,97471.88
2023-04-21T00:33:42.636Z,97470.75
2023-04-21T00:36:09.157Z,97468.78
2023-04-21T00:38:35.637Z,97466.38
2023-04-21T00:41:02.552Z,97465.09
2023-04-21T00:43:30.122Z,97461.72
2023-04-21T00:45:56.636Z,97465.06
2023-04-21T00:48:23.122Z,97464.97
2023-04-21T00:50:49.814Z,97463.59
2023-04-21T00:53:16.609Z,97457.56
2023-04-21T00:55:44.873Z,97455.94
2023-04-21T00:58:11.614Z,97457.19
2023-04-21T01:00:39.576Z,97456.47
2023-04-21T01:03:07.043Z,97459.47
2023-04-21T01:05:33.823Z,97460.31
2023-04-21T01:08:01.441Z,97458.06
2023-04-21T01:10:27.949Z,97455.66
2023-04-21T01:12:54.453Z,97461.44
2023-04-21T01:15:21.048Z,97462.84
2023-04-21T01:17:47.675Z,97464.53
2023-04-21T01:20:14.408Z,97454.38
2023-04-21T01:22:42.246Z,97461.44
2023-04-21T01:25:09.236Z,97469.63
2023-04-21T01:27:36.122Z,97457.03
2023-04-21T01:30:03.563Z,97469.34
2023-04-21T01:32:31.738Z,97463.69
2023-04-21T01:34:59.212Z,97461.84
2023-04-21T01:37:27.358Z,97460.41
2023-04-21T01:39:55.778Z,97457.59
2023-04-21T01:42:23.241Z,97462.84
2023-04-21T01:44:49.892Z,97452.81
2023-04-21T01:47:17.891Z,97461.13
2023-04-21T01:49:45.419Z,97466.75
2023-04-21T01:52:12.462Z,97462.13
2023-04-21T01:54:39.334Z,97463.06
2023-04-21T01:57:07.411Z,97461.09
2023-04-21T01:59:34.001Z,97456.03
2023-04-21T02:02:02.316Z,97461.13
2023-04-21T02:04:29.083Z,97449.28
2023-04-21T02:06:55.836Z,97456.59
2023-04-21T02:09:22.454Z,97453.22
2023-04-21T02:11:52.519Z,97439.09
2023-04-21T02:14:19.029Z,97449.81
2023-04-21T02:16:45.847Z,97444.16
2023-04-21T02:19:12.421Z,97444.50
2023-04-21T02:21:38.926Z,97447.16
2023-04-21T02:24:05.537Z,97456.03
2023-04-21T02:26:32.031Z,97457.72
2023-04-21T02:29:00.167Z,97468.31
2023-04-21T02:31:26.838Z,97463.25
2023-04-21T02:33:54.557Z,97461.97
2023-04-21T02:36:21.390Z,97459.28
2023-04-21T02:38:47.860Z,97458.88
2023-04-21T02:41:14.365Z,97458.88
2023-04-21T02:43:40.860Z,97461.56
2023-04-21T02:46:08.017Z,97462.28
2023-04-21T02:48:35.344Z,97462.56
2023-04-21T02:51:02.234Z,97456.06
2023-04-21T02:53:29.062Z,97455.22
2023-04-21T02:55:56.353Z,97452.97
2023-04-21T02:58:23.283Z,97447.59
2023-04-21T03:00:49.807Z,97445.06
2023-04-21T03:03:16.763Z,97446.47
2023-04-21T03:05:43.419Z,97445.91
2023-04-21T03:08:09.960Z,97452.97
2023-04-21T03:10:37.314Z,97445.06
2023-04-21T03:13:03.804Z,97446.47
2023-04-21T03:15:31.843Z,97448.16
2023-04-21T03:18:01.128Z,97444.34
2023-04-21T03:20:27.727Z,97441.50
2023-04-21T03:22:54.355Z,97444.91
2023-04-21T03:25:20.971Z,97447.31
2023-04-21T03:27:47.481Z,97443.78
2023-04-21T03:30:14.174Z,97443.38
2023-04-21T03:32:40.830Z,97443.91
2023-04-21T03:35:07.536Z,97446.47
2023-04-21T03:37:34.282Z,97441.25
2023-04-21T03:40:01.106Z,97440.81
2023-04-21T03:42:29.719Z,97441.66
2023-04-21T03:44:56.884Z,97441.38
2023-04-21T03:47:23.951Z,97447.88
2023-04-21T03:49:51.552Z,97441.66
2023-04-21T03:52:18.091Z,97444.72
2023-04-21T03:54:44.671Z,97450.81
2023-04-21T03:57:11.219Z,97451.78
2023-04-21T03:59:37.679Z,97452.34
2023-04-21T04:02:04.250Z,97443.31
2023-04-21T04:04:31.052Z,97445.53
2023-04-21T04:06:57.669Z,97445.53
2023-04-21T04:09:24.180Z,97459.19
2023-04-21T04:11:50.976Z,97450.88
2023-04-21T04:14:17.770Z,97455.25
2023-04-21T04:16:44.346Z,97453.28
2023-04-21T04:19:11.522Z,97459.13
2023-04-21T04:21:38.145Z,97464.06
2023-04-21T04:24:05.403Z,97465.94
2023-04-21T04:26:34.503Z,97470.75
2023-04-21T04:29:02.300Z,97477.81
2023-04-21T04:31:32.546Z,97482.63
2023-04-21T04:33:59.207Z,97481.50
2023-04-21T04:36:25.744Z,97480.63
2023-04-21T04:38:52.432Z,97489.22
2023-04-21T04:41:20.915Z,97488.09
2023-04-21T04:43:47.490Z,97496.91
2023-04-21T04:46:14.049Z,97485.28
2023-04-21T04:48:40.843Z,97486.97
2023-04-21T04:51:07.532Z,97490.34
2023-04-21T04:53:34.052Z,97494.53
2023-04-21T04:56:00.582Z,97488.19
2023-04-21T04:58:27.116Z,97495.91
2023-04-21T05:00:53.587Z,97493.66
2023-04-21T05:03:20.367Z,97484.97
2023-04-21T05:05:46.971Z,97488.28
2023-04-21T05:08:15.696Z,97492.81
2023-04-21T05:10:43.650Z,97487.69
2023-04-21T05:13:10.271Z,97484.81
2023-04-21T05:15:36.730Z,97500.06
2023-04-21T05:18:03.314Z,97494.59
2023-04-21T05:20:30.016Z,97484.84
2023-04-21T05:22:56.468Z,97488.56
2023-04-21T05:25:22.977Z,97488.50
2023-04-21T05:27:49.874Z,97485.50
2023-04-21T05:30:16.391Z,97485.66
2023-04-21T05:32:43.048Z,97485.47
2023-04-21T05:35:09.747Z,97483.84
2023-04-21T05:37:36.328Z,97491.84
2023-04-21T05:40:02.874Z,97483.06
2023-04-21T05:42:29.343Z,97497.22
2023-04-21T05:44:55.860Z,97481.16
2023-04-21T05:47:22.393Z,97480.56
2023-04-21T05:49:52.421Z,97488.66
2023-04-21T05:52:19.216Z,97497.09
2023-04-21T05:54:45.819Z,97498.59
2023-04-21T05:57:12.440Z,97504.13
2023-04-21T05:59:39.315Z,97512.25
2023-04-21T06:02:06.117Z,97506.19
2023-04-21T06:04:32.953Z,97506.22
2023-04-21T06:07:04.722Z,97513.44
2023-04-21T06:09:31.244Z,97517.25
2023-04-21T06:11:57.743Z,97509.97
2023-04-21T06:14:24.270Z,97501.91
2023-04-21T06:16:50.849Z,97514.03
2023-04-21T06:19:17.299Z,97511.97
2023-04-21T06:21:43.746Z,97513.66
2023-04-21T06:24:10.225Z,97516.16
2023-04-21T06:26:36.733Z,97518.91
2023-04-21T06:29:03.231Z,97514.53
2023-04-21T06:31:29.833Z,97508.56
2023-04-21T06:33:56.433Z,97513.97
2023-04-21T06:36:23.015Z,97509.31
2023-04-21T06:38:49.508Z,97520.81
2023-04-21T06:41:15.999Z,97513.56
2023-04-21T06:43:42.480Z,97515.19
2023-04-21T06:46:08.985Z,97505.31
2023-04-21T06:48:35.739Z,97502.84
2023-04-21T06:51:02.696Z,97499.66
2023-04-21T06:53:29.243Z,97495.91
2023-04-21T06:55:55.840Z,97502.13
2023-04-21T06:58:22.341Z,97493.25
2023-04-21T07:00:48.903Z,97496.13
2023-04-21T07:03:15.776Z,97500.78
2023-04-21T07:05:42.398Z,97507.00
2023-04-21T07:08:08.862Z,97501.34
2023-04-21T07:10:35.475Z,97506.25
2023-04-21T07:13:02.130Z,97507.19
2023-04-21T07:15:28.619Z,97504.19
2023-04-21T07:17:55.159Z,97506.41
2023-04-21T07:20:21.800Z,97510.63
2023-04-21T07:22:48.253Z,97507.28
2023-04-21T07:25:17.201Z,97516.63
2023-04-21T07:27:44.294Z,97515.41
2023-04-21T07:30:11.203Z,97509.66
2023-04-21T07:32:38.788Z,97518.63
2023-04-21T07:35:06.369Z,97500.66
2023-04-21T07:37:32.881Z,97512.44
2023-04-21T07:39:59.338Z,97511.34
2023-04-21T07:42:26.858Z,97502.91
2023-04-21T07:44:53.649Z,97517.66
2023-04-21T07:47:20.485Z,97511.66
2023-04-21T07:49:47.109Z,97514.50
2023-04-21T07:52:13.602Z,97518.25
2023-04-21T07:54:40.125Z,97517.13
2023-04-21T07:57:07.494Z,97518.72
2023-04-21T07:59:33.938Z,97520.53
2023-04-21T08:02:00.755Z,97513.47
2023-04-21T08:04:27.592Z,97518.66
2023-04-21T08:06:54.390Z,97520.09
2023-04-21T08:09:21.356Z,97516.75
2023-04-21T08:11:48.012Z,97521.06
2023-04-21T08:14:14.462Z,97520.09
2023-04-21T08:16:42.298Z,97517.59
2023-04-21T08:19:09.396Z,97513.47
2023-04-21T08:21:36.389Z,97520.84
2023-04-21T08:24:02.978Z,97514.81
2023-04-21T08:26:30.216Z,97518.13
2023-04-21T08:28:57.310Z,97507.94
2023-04-21T08:31:23.961Z,97504.97
2023-04-21T08:34:01.117Z,97507.78
2023-04-21T08:36:30.203Z,97506.88
2023-04-21T08:38:57.630Z,97513.34
2023-04-21T08:41:24.887Z,97502.88
2023-04-21T08:43:51.545Z,97498.59
2023-04-21T08:46:18.913Z,97503.75
2023-04-21T08:48:46.225Z,97505.41
2023-04-21T08:51:14.791Z,97498.06
2023-04-21T08:53:41.421Z,97497.56
2023-04-21T08:56:11.450Z,97503.63
2023-04-21T08:58:38.475Z,97493.97
2023-04-21T09:01:05.373Z,97500.88
2023-04-21T09:03:32.077Z,97493.13
2023-04-21T09:05:59.902Z,97498.59
2023-04-21T09:08:28.081Z,97496.91
2023-04-21T09:10:55.305Z,97491.09
2023-04-21T09:13:28.673Z,97484.81
2023-04-21T09:15:55.343Z,97482.78
2023-04-21T09:18:23.057Z,97493.69
2023-04-21T09:20:51.228Z,97497.84
2023-04-21T09:23:17.801Z,97496.00
2023-04-21T09:25:45.478Z,97495.34
2023-04-21T09:28:12.847Z,97491.53
2023-04-21T09:30:40.279Z,97491.28
2023-04-21T09:33:20.226Z,97501.69
2023-04-21T09:35:53.450Z,97491.97
2023-04-21T09:38:22.280Z,97488.25
2023-04-21T09:40:59.106Z,97490.63
2023-04-21T09:43:26.124Z,97496.03
2023-04-21T09:45:53.749Z,97494.22
2023-04-21T09:48:22.582Z,97481.56
2023-04-21T09:53:21.966Z,97479.84
2023-04-21T09:55:50.429Z,97470.06
2023-04-21T09:58:20.197Z,97473.69
2023-04-21T10:00:47.165Z,97477.88
2023-04-21T10:03:14.547Z,97470.97
2023-04-21T10:05:42.975Z,97465.06
2023-04-21T10:08:11.731Z,97466.56
2023-04-21T10:10:38.826Z,97468.25
2023-04-21T10:13:05.752Z,97467.63
2023-04-21T10:15:41.802Z,97471.41
2023-04-21T10:18:25.167Z,97460.44
2023-04-21T10:21:11.345Z,97460.69
2023-04-21T10:23:38.871Z,97462.00
2023-04-21T10:26:22.186Z,97457.78
2023-04-21T10:28:56.653Z,97456.22
2023-04-21T10:31:25.408Z,97450.53
2023-04-21T10:34:13.174Z,97443.88
2023-04-21T10:36:48.844Z,97443.66
2023-04-21T10:39:27.602Z,97442.34
2023-04-21T10:42:00.697Z,97448.09
2023-04-21T10:44:29.031Z,97442.16
2023-04-21T10:46:56.469Z,97448.16
2023-04-21T10:49:26.805Z,97437.34
2023-04-21T10:51:59.334Z,97447.38
2023-04-21T10:54:26.524Z,97446.75
2023-04-21T10:56:56.555Z,97445.69
2023-04-21T10:59:23.495Z,97448.41
2023-04-21T11:01:50.095Z,97444.75
2023-04-21T11:04:17.880Z,97443.81
2023-04-21T11:07:04.591Z,97442.06
2023-04-21T11:09:31.157Z,97439.75
2023-04-21T11:11:58.232Z,97440.66
2023-04-21T11:14:24.713Z,97427.03
2023-04-21T11:16:51.342Z,97428.13
2023-04-21T11:19:17.804Z,97427.31
2023-04-21T11:21:48.365Z,97430.03
2023-04-21T11:24:14.919Z,97420.91
2023-04-21T11:26:42.752Z,97425.66
2023-04-21T11:29:10.695Z,97427.19
2023-04-21T11:31:37.962Z,97418.13
2023-04-21T11:34:05.379Z,97418.91
2023-04-21T11:36:35.437Z,97419.44
2023-04-21T11:39:09.849Z,97413.00
2023-04-21T11:41:38.775Z,97419.75
2023-04-21T11:44:05.423Z,97417.22
2023-04-21T11:46:37.250Z,97417.47
2023-04-21T11:49:07.761Z,97418.91
2023-04-21T11:51:38.322Z,97413.84
2023-04-21T11:54:05.891Z,97411.75
2023-04-21T11:56:38.226Z,97416.78
2023-04-21T11:59:12.218Z,97413.88
2023-04-21T12:01:44.735Z,97413.88
2023-04-21T12:04:30.423Z,97406.31
2023-04-21T12:06:59.933Z,97409.69
2023-04-21T12:09:27.227Z,97405.50
2023-04-21T12:11:54.790Z,97407.16
2023-04-21T12:14:22.429Z,97397.00
2023-04-21T12:16:50.419Z,97400.78
2023-04-21T12:19:36.690Z,97407.03
2023-04-21T12:22:06.991Z,97393.53
2023-04-21T12:24:36.143Z,97398.44
2023-04-21T12:27:03.438Z,97397.91
2023-04-21T12:29:29.893Z,97397.56
2023-04-21T12:31:56.678Z,97402.13
2023-04-21T12:34:23.345Z,97408.22
2023-04-21T12:36:49.996Z,97407.56
2023-04-21T12:39:18.813Z,97408.06
2023-04-21T12:41:47.372Z,97410.31
2023-04-21T12:44:14.239Z,97414.75
2023-04-21T12:46:41.124Z,97426.97
2023-04-21T12:49:08.979Z,97429.16
2023-04-21T12:51:35.472Z,97429.88
2023-04-21T12:54:02.447Z,97428.75
2023-04-21T12:56:29.512Z,97428.38
2023-04-21T12:58:56.023Z,97428.03
2023-04-21T13:01:23.006Z,97422.69
2023-04-21T13:03:49.681Z,97424.47
2023-04-21T13:06:17.130Z,97422.75
2023-04-21T13:08:43.739Z,97428.97
2023-04-21T13:11:10.658Z,97424.53
2023-04-21T13:13:37.337Z,97426.22
2023-04-21T13:16:03.966Z,97425.94
2023-04-21T13:18:30.976Z,97420.63
2023-04-21T13:20:57.481Z,97414.28
2023-04-21T13:23:23.984Z,97417.16
2023-04-21T13:25:50.959Z,97410.78
2023-04-21T13:28:17.589Z,97415.97
2023-04-21T13:30:44.739Z,97401.81
2023-04-21T13:33:11.777Z,97401.19
2023-04-21T13:35:38.468Z,97398.13
2023-04-21T13:38:05.706Z,97389.19
2023-04-21T13:40:32.259Z,97394.91
2023-04-21T13:42:59.417Z,97390.56
2023-04-21T13:45:26.641Z,97389.22
2023-04-21T13:47:54.110Z,97389.66
2023-04-21T13:50:21.341Z,97386.31
2023-04-21T13:52:48.273Z,97385.59
2023-04-21T13:55:14.762Z,97383.97
2023-04-21T13:57:41.255Z,97376.13
2023-04-21T14:00:11.302Z,97373.19
2023-04-21T14:02:39.254Z,97372.13
2023-04-21T14:05:06.299Z,97372.38
2023-04-21T14:07:33.633Z,97368.00
2023-04-21T14:10:00.700Z,97357.91
2023-04-21T14:12:27.254Z,97356.19
2023-04-21T14:14:53.706Z,97355.00
2023-04-21T14:17:23.175Z,97344.59
2023-04-21T14:19:49.968Z,97338.63
2023-04-21T14:22:16.680Z,97327.94
2023-04-21T14:24:43.203Z,97333.31
2023-04-21T14:27:10.616Z,97329.84
2023-04-21T14:29:37.205Z,97323.34
2023-04-21T14:32:03.954Z,97324.84
2023-04-21T14:34:30.477Z,97317.22
2023-04-21T14:36:56.981Z,97323.25
2023-04-21T14:39:23.774Z,97314.50
2023-04-21T14:41:50.285Z,97312.16
2023-04-21T14:44:18.858Z,97312.44
2023-04-21T14:46:56.892Z,97312.22
2023-04-21T14:49:28.058Z,97302.13
2023-04-21T14:51:54.603Z,97305.53
2023-04-21T14:54:21.176Z,97308.16
2023-04-21T14:56:47.624Z,97303.63
2023-04-21T14:59:14.103Z,97300.44
2023-04-21T15:01:40.948Z,97310.28
2023-04-21T15:04:07.786Z,97304.81
2023-04-21T15:06:34.460Z,97291.09
2023-04-21T15:09:00.917Z,97296.47
2023-04-21T15:11:27.404Z,97298.47
2023-04-21T15:13:53.863Z,97291.75
2023-04-21T15:16:20.403Z,97293.66
2023-04-21T15:18:46.982Z,97297.06
2023-04-21T15:21:13.413Z,97300.22
2023-04-21T15:23:40.020Z,97296.69
2023-04-21T15:26:06.553Z,97295.44
2023-04-21T15:28:33.020Z,97293.97
2023-04-21T15:30:59.518Z,97293.66
2023-04-21T15:33:26.120Z,97288.88
2023-04-21T15:35:52.656Z,97291.09
2023-04-21T15:38:21.131Z,97286.03
2023-04-21T15:41:00.224Z,97280.91
2023-04-21T15:43:27.926Z,97280.94
2023-04-21T15:45:54.375Z,97284.81
2023-04-21T15:48:22.233Z,97276.09
2023-04-21T15:50:49.038Z,97281.44
2023-04-21T15:53:16.722Z,97275.72
2023-04-21T15:55:45.090Z,97284.13
2023-04-21T15:58:13.570Z,97274.28
2023-04-21T16:00:41.649Z,97277.44
2023-04-21T16:03:09.138Z,97278.50
2023-04-21T16:05:36.267Z,97266.75
2023-04-21T16:08:02.881Z,97273.94
2023-04-21T16:10:29.470Z,97267.09
2023-04-21T16:12:55.989Z,97271.47
2023-04-21T16:15:24.779Z,97272.63
2023-04-21T16:17:51.957Z,97265.16
2023-04-21T16:20:18.626Z,97267.66
2023-04-21T16:22:45.266Z,97268.38
2023-04-21T16:25:17.077Z,97260.47
2023-04-21T16:27:43.929Z,97269.47
2023-04-21T16:30:10.730Z,97259.13
2023-04-21T16:32:37.363Z,97268.63
2023-04-21T16:35:10.704Z,97262.78
2023-04-21T16:37:40.103Z,97256.63
2023-04-21T16:40:07.396Z,97246.50
2023-04-21T16:42:34.056Z,97249.47
2023-04-21T16:45:03.376Z,97252.06
2023-04-21T16:47:30.897Z,97258.31
2023-04-21T16:49:57.532Z,97256.22
2023-04-21T16:52:25.824Z,97251.78
2023-04-21T16:54:52.392Z,97255.97
2023-04-21T16:57:18.896Z,97251.13
2023-04-21T16:59:45.667Z,97262.84
2023-04-21T17:02:12.357Z,97250.75
2023-04-21T17:04:40.090Z,97262.06
2023-04-21T17:07:07.237Z,97250.47
2023-04-21T17:09:33.717Z,97264.06
2023-04-21T17:12:01.157Z,97265.09
2023-04-21T17:14:27.704Z,97260.88
2023-04-21T17:16:54.542Z,97257.50
2023-04-21T17:19:21.492Z,97259.81
2023-04-21T17:21:47.948Z,97264.41
2023-04-21T17:24:14.619Z,97268.91
2023-04-21T17:26:41.159Z,97271.78
2023-04-21T17:29:11.116Z,97285.00
2023-04-21T17:31:37.964Z,97272.25
2023-04-21T17:34:04.605Z,97267.19
2023-04-21T17:36:31.194Z,97269.22
2023-04-21T17:38:58.509Z,97273.38
2023-04-21T17:41:25.928Z,97271.88
2023-04-21T17:43:54.437Z,97283.53
2023-04-21T17:46:22.706Z,97277.84
2023-04-21T17:48:51.467Z,97282.28
2023-04-21T17:51:19.322Z,97284.25
2023-04-21T17:53:49.315Z,97285.78
2023-04-21T17:56:15.848Z,97280.50
2023-04-21T17:58:42.668Z,97287.41
2023-04-21T18:01:09.218Z,97290.22
2023-04-21T18:03:36.207Z,97281.47
2023-04-21T18:06:03.036Z,97299.44
2023-04-21T18:08:29.629Z,97295.25
2023-04-21T18:10:56.087Z,97290.00
2023-04-21T18:13:22.585Z,97286.34
2023-04-21T18:15:49.197Z,97289.34
2023-04-21T18:18:15.759Z,97291.75
2023-04-21T18:20:42.274Z,97307.69
2023-04-21T18:23:08.982Z,97298.88
2023-04-21T18:25:42.697Z,97303.31
2023-04-21T18:28:11.085Z,97299.31
2023-04-21T18:30:37.901Z,97306.19
2023-04-21T18:33:04.398Z,97301.56
2023-04-21T18:35:33.084Z,97310.03
2023-04-21T18:37:59.623Z,97316.88
2023-04-21T18:40:26.117Z,97321.34
2023-04-21T18:42:52.677Z,97318.00
2023-04-21T18:45:19.199Z,97323.44
2023-04-21T18:47:46.753Z,97327.22
2023-04-21T18:50:13.432Z,97329.41
2023-04-21T18:52:39.928Z,97327.63
2023-04-21T18:55:06.515Z,97329.03
2023-04-21T18:57:33.039Z,97327.66
2023-04-21T19:00:00.357Z,97327.03
2023-04-21T19:02:28.535Z,97328.72
2023-04-21T19:04:55.225Z,97322.31
2023-04-21T19:07:22.039Z,97320.47
2023-04-21T19:09:48.556Z,97329.25
2023-04-21T19:12:15.956Z,97326.41
2023-04-21T19:14:47.072Z,97329.44
2023-04-21T19:17:14.521Z,97333.47
2023-04-21T19:19:41.538Z,97327.75
2023-04-21T19:22:08.112Z,97325.38
2023-04-21T19:24:34.761Z,97317.13
2023-04-21T19:27:02.494Z,97317.66
2023-04-21T19:29:29.071Z,97320.66
2023-04-21T19:31:55.564Z,97319.69
2023-04-21T19:34:22.295Z,97313.91
2023-04-21T19:36:48.954Z,97319.34
2023-04-21T19:39:15.482Z,97313.88
2023-04-21T19:41:41.936Z,97313.19
2023-04-21T19:44:08.389Z,97317.94
2023-04-21T19:46:35.137Z,97314.91
2023-04-21T19:49:01.649Z,97309.50
2023-04-21T19:51:28.222Z,97309.81
2023-04-21T19:54:10.163Z,97308.81
2023-04-21T19:56:38.113Z,97309.13
2023-04-21T19:59:05.700Z,97316.88
2023-04-21T20:01:32.603Z,97309.44
2023-04-21T20:03:59.757Z,97319.19
2023-04-21T20:06:27.124Z,97327.25
2023-04-21T20:08:53.588Z,97317.31
2023-04-21T20:11:20.088Z,97321.16
2023-04-21T20:13:46.827Z,97316.53
2023-04-21T20:16:13.456Z,97322.00
2023-04-21T20:18:40.244Z,97321.66
2023-04-21T20:21:06.689Z,97324.38
2023-04-21T20:23:33.227Z,97321.72
2023-04-21T20:25:59.769Z,97326.44
2023-04-21T20:28:27.582Z,97321.91
2023-04-21T20:30:56.234Z,97327.78
2023-04-21T20:33:22.819Z,97325.41
2023-04-21T20:35:49.793Z,97325.09
2023-04-21T20:38:16.451Z,97326.59
2023-04-21T20:40:43.028Z,97318.63
2023-04-21T20:43:10.346Z,97327.69
2023-04-21T20:45:37.783Z,97321.00
2023-04-21T20:48:04.618Z,97328.91
2023-04-21T20:50:31.119Z,97328.41
2023-04-21T20:52:58.112Z,97327.81
2023-04-21T20:55:24.889Z,97323.75
2023-04-21T20:57:51.356Z,97324.88
2023-04-21T21:00:17.948Z,97321.19
2023-04-21T21:02:44.718Z,97325.22
2023-04-21T21:05:11.302Z,97323.75
2023-04-21T21:07:38.024Z,97321.91
2023-04-21T21:10:05.063Z,97331.03
2023-04-21T21:12:31.651Z,97326.66
2023-04-21T21:14:58.138Z,97323.97
2023-04-21T21:17:24.820Z,97320.16
2023-04-21T21:19:51.362Z,97326.91
2023-04-21T21:22:17.821Z,97322.47
2023-04-21T21:24:44.383Z,97333.66
2023-04-21T21:27:11.468Z,97340.03
2023-04-21T21:29:38.370Z,97321.53
2023-04-21T21:32:05.208Z,97328.28
2023-04-21T21:34:31.738Z,97325.50
2023-04-21T21:36:58.299Z,97329.09
2023-04-21T21:39:24.869Z,97322.06
2023-04-21T21:41:51.322Z,97325.75
2023-04-21T21:44:17.812Z,97324.13
2023-04-21T21:46:44.352Z,97323.81
2023-04-21T21:49:11.061Z,97325.00
2023-04-21T21:51:37.515Z,97320.78
2023-04-21T21:54:03.978Z,97326.16
2023-04-21T21:56:30.476Z,97327.50
2023-04-21T21:58:57.015Z,97342.16
2023-04-21T22:01:23.521Z,97334.59
2023-04-21T22:03:51.824Z,97342.38
2023-04-21T22:06:18.656Z,97338.50
2023-04-21T22:08:45.480Z,97343.34
2023-04-21T22:11:12.120Z,97343.66
2023-04-21T22:13:38.627Z,97342.31
2023-04-21T22:16:06.096Z,97339.16
2023-04-21T22:18:32.782Z,97344.53
2023-04-21T22:20:59.667Z,97342.97
2023-04-21T22:23:26.265Z,97342.44
2023-04-21T22:25:52.983Z,97341.09
2023-04-21T22:28:19.453Z,97348.16
2023-04-21T22:30:45.948Z,97359.34
2023-04-21T22:33:12.494Z,97340.53
2023-04-21T22:35:39.017Z,97346.75
2023-04-21T22:38:05.686Z,97347.25
2023-04-21T22:40:32.176Z,97352.56
2023-04-21T22:42:58.767Z,97345.19
2023-04-21T22:45:25.308Z,97348.94
2023-04-21T22:47:51.913Z,97355.47
2023-04-21T22:50:19.802Z,97360.78
2023-04-21T22:52:46.288Z,97355.50
2023-04-21T22:55:12.757Z,97361.34
2023-04-21T22:57:39.354Z,97359.50
2023-04-21T23:00:07.870Z,97359.81
2023-04-21T23:02:34.503Z,97366.16
2023-04-21T23:05:01.302Z,97366.44
2023-04-21T23:07:27.927Z,97372.50
2023-04-21T23:09:54.408Z,97364.06
2023-04-21T23:12:20.996Z,97368.31
2023-04-21T23:14:48.311Z,97378.75
2023-04-21T23:17:14.855Z,97370.44
2023-04-21T23:19:41.957Z,97370.53
2023-04-21T23:22:08.576Z,97374.31
2023-04-21T23:24:35.086Z,97364.75
2023-04-21T23:27:02.100Z,97368.59
2023-04-21T23:29:28.609Z,97368.69
2023-04-21T23:31:55.250Z,97361.28
2023-04-21T23:34:21.777Z,97359.44
2023-04-21T23:36:48.225Z,97360.41
2023-04-21T23:39:14.706Z,97369.31
2023-04-21T23:41:41.279Z,97364.84
2023-04-21T23:44:07.748Z,97362.03
2023-04-21T23:46:34.248Z,97355.28
2023-04-21T23:49:00.770Z,97359.53
2023-04-21T23:51:28.185Z,97355.75
2023-04-21T23:53:54.902Z,97355.03
2023-04-21T23:56:21.373Z,97357.59
2023-04-21T23:58:47.815Z,97354.50
